createdAt,value
2023-05-15T00:00:35.013Z,99546.47
2023-05-15T00:03:02.537Z,99550.72
2023-05-15T00:05:29.354Z,99538.25
2023-05-15T00:07:56.150Z,99538.47
2023-05-15T00:10:22.877Z,99538.06
2023-05-15T00:12:50.298Z,99536.66
2023-05-15T00:15:17.223Z,99537.25
2023-05-15T00:17:43.851Z,99541.94
2023-05-15T00:20:11.352Z,99531.06
2023-05-15T00:22:38.208Z,99529.44
2023-05-15T00:25:05.210Z,99522.44
2023-05-15T00:27:31.843Z,99523.00
2023-05-15T00:29:58.523Z,99528.25
2023-05-15T00:32:25.182Z,99528.44
2023-05-15T00:34:51.945Z,99527.19
2023-05-15T00:37:19.557Z,99518.19
2023-05-15T00:39:46.232Z,99516.50
2023-05-15T00:42:13.530Z,99512.63
2023-05-15T00:44:41.498Z,99516.16
2023-05-15T00:47:10.858Z,99497.88
2023-05-15T00:49:38.773Z,99513.28
2023-05-15T00:52:08.412Z,99510.38
2023-05-15T00:54:35.414Z,99524.34
2023-05-15T00:57:03.885Z,99527.78
2023-05-15T00:59:31.873Z,99518.63
2023-05-15T01:01:58.553Z,99514.75
2023-05-15T01:04:25.585Z,99510.66
2023-05-15T01:06:54.068Z,99523.31
2023-05-15T01:09:23.692Z,99520.28
2023-05-15T01:11:53.696Z,99519.25
2023-05-15T01:14:20.487Z,99519.81
2023-05-15T01:16:47.284Z,99517.81
2023-05-15T01:19:14.490Z,99517.16
2023-05-15T01:21:59.874Z,99515.75
2023-05-15T01:24:55.783Z,99517.56
2023-05-15T01:27:51.452Z,99518.19
2023-05-15T01:30:30.153Z,99519.56
2023-05-15T01:33:17.338Z,99527.56
2023-05-15T01:36:08.082Z,99522.19
2023-05-15T01:38:42.991Z,99518.72
2023-05-15T01:41:11.798Z,99518.94
2023-05-15T01:43:42.272Z,99523.53
2023-05-15T01:46:11.565Z,99525.16
2023-05-15T01:48:40.768Z,99530.81
2023-05-15T01:51:10.278Z,99529.81
2023-05-15T01:53:38.807Z,99530.03
2023-05-15T01:56:08.230Z,99542.72
2023-05-15T01:58:38.444Z,99539.88
2023-05-15T02:01:06.081Z,99530.03
2023-05-15T02:03:36.733Z,99538.31
2023-05-15T02:06:05.044Z,99548.78
2023-05-15T02:08:35.124Z,99545.06
2023-05-15T02:11:03.384Z,99534.19
2023-05-15T02:13:31.641Z,99527.84
2023-05-15T02:15:58.540Z,99535.47
2023-05-15T02:18:25.480Z,99531.78
2023-05-15T02:20:52.145Z,99534.44
2023-05-15T02:23:20.706Z,99528.50
2023-05-15T02:26:07.954Z,99537.53
2023-05-15T02:28:43.352Z,99515.22
2023-05-15T02:31:23.768Z,99512.53
2023-05-15T02:34:13.139Z,99502.72
2023-05-15T02:36:44.621Z,99498.16
2023-05-15T02:39:13.424Z,99497.94
2023-05-15T02:41:40.497Z,99498.56
2023-05-15T02:44:08.809Z,99499.84
2023-05-15T02:46:37.323Z,99502.63
2023-05-15T02:49:04.147Z,99495.69
2023-05-15T02:51:31.196Z,99499.38
2023-05-15T02:54:01.052Z,99511.69
2023-05-15T02:56:27.573Z,99515.34
2023-05-15T02:58:54.524Z,99500.03
2023-05-15T03:01:21.372Z,99491.63
2023-05-15T03:03:48.290Z,99500.84
2023-05-15T03:06:14.995Z,99498.41
2023-05-15T03:08:41.955Z,99488.56
2023-05-15T03:11:08.522Z,99479.75
2023-05-15T03:13:35.178Z,99487.53
2023-05-15T03:16:01.868Z,99500.06
2023-05-15T03:18:28.546Z,99500.47
2023-05-15T03:20:55.191Z,99510.09
2023-05-15T03:23:21.876Z,99513.16
2023-05-15T03:25:48.565Z,99500.66
2023-05-15T03:28:15.236Z,99496.53
2023-05-15T03:30:44.736Z,99504.75
2023-05-15T03:33:11.392Z,99481.38
2023-05-15T03:35:38.143Z,99465.38
2023-05-15T03:38:04.730Z,99472.56
2023-05-15T03:40:31.317Z,99454.09
2023-05-15T03:42:58.470Z,99454.06
2023-05-15T03:45:25.218Z,99465.34
2023-05-15T03:47:52.026Z,99464.94
2023-05-15T03:50:19.863Z,99467.13
2023-05-15T03:52:47.165Z,99474.03
2023-05-15T03:55:13.846Z,99477.28
2023-05-15T03:57:41.721Z,99462.91
2023-05-15T04:00:12.459Z,99472.72
2023-05-15T04:02:40.373Z,99474.53
2023-05-15T04:05:07.938Z,99477.25
2023-05-15T04:07:37.950Z,99484.81
2023-05-15T04:10:05.087Z,99491.00
2023-05-15T04:12:34.231Z,99490.31
2023-05-15T04:15:24.480Z,99495.72
2023-05-15T04:17:53.678Z,99489.59
2023-05-15T04:20:23.129Z,99489.53
2023-05-15T04:22:50.757Z,99486.50
2023-05-15T04:25:18.209Z,99474.81
2023-05-15T04:27:45.054Z,99460.78
2023-05-15T04:30:14.100Z,99454.22
2023-05-15T04:32:41.143Z,99447.59
2023-05-15T04:35:10.549Z,99472.19
2023-05-15T04:37:38.549Z,99487.03
2023-05-15T04:40:08.830Z,99493.28
2023-05-15T04:42:39.544Z,99498.88
2023-05-15T04:45:07.350Z,99496.44
2023-05-15T04:47:34.316Z,99503.84
2023-05-15T04:50:03.109Z,99511.84
2023-05-15T04:52:30.001Z,99514.13
2023-05-15T04:54:56.615Z,99527.63
2023-05-15T04:57:25.862Z,99524.75
2023-05-15T04:59:52.802Z,99522.03
2023-05-15T05:02:23.513Z,99508.44
2023-05-15T05:04:50.530Z,99490.88
2023-05-15T05:07:17.311Z,99487.44
2023-05-15T05:09:44.500Z,99488.28
2023-05-15T05:12:11.276Z,99489.53
2023-05-15T05:14:40.501Z,99487.66
2023-05-15T05:17:07.240Z,99487.59
2023-05-15T05:19:33.936Z,99485.03
2023-05-15T05:22:04.680Z,99481.41
2023-05-15T05:24:37.724Z,99484.59
2023-05-15T05:27:05.209Z,99490.28
2023-05-15T05:29:32.637Z,99497.06
2023-05-15T05:31:59.371Z,99497.44
2023-05-15T05:34:26.030Z,99506.72
2023-05-15T05:36:52.682Z,99513.63
2023-05-15T05:39:19.452Z,99508.78
2023-05-15T05:41:46.058Z,99512.19
2023-05-15T05:44:12.881Z,99516.94
2023-05-15T05:46:41.167Z,99511.88
2023-05-15T05:49:07.770Z,99500.19
2023-05-15T05:51:37.279Z,99516.75
2023-05-15T05:54:04.294Z,99534.78
2023-05-15T05:56:31.478Z,99536.44
2023-05-15T05:58:59.652Z,99536.31
2023-05-15T06:01:27.009Z,99545.72
2023-05-15T06:03:53.850Z,99547.69
2023-05-15T06:06:20.524Z,99550.72
2023-05-15T06:08:47.076Z,99557.09
2023-05-15T06:11:13.790Z,99553.34
2023-05-15T06:13:41.088Z,99563.97
2023-05-15T06:16:07.834Z,99562.81
2023-05-15T06:18:34.504Z,99558.88
2023-05-15T06:21:04.048Z,99566.06
2023-05-15T06:23:30.718Z,99572.94
2023-05-15T06:25:57.445Z,99566.34
2023-05-15T06:28:27.354Z,99582.00
2023-05-15T06:30:53.988Z,99581.56
2023-05-15T06:33:23.735Z,99574.81
2023-05-15T06:35:50.830Z,99578.59
2023-05-15T06:38:17.752Z,99572.78
2023-05-15T06:40:44.401Z,99573.81
2023-05-15T06:43:11.164Z,99580.28
2023-05-15T06:45:37.809Z,99577.47
2023-05-15T06:48:07.221Z,99579.94
2023-05-15T06:50:33.857Z,99583.31
2023-05-15T06:53:01.303Z,99587.31
2023-05-15T06:55:28.103Z,99577.97
2023-05-15T06:57:54.862Z,99575.88
2023-05-15T07:00:21.599Z,99574.75
2023-05-15T07:02:48.308Z,99575.28
2023-05-15T07:05:15.212Z,99582.47
2023-05-15T07:07:42.809Z,99578.56
2023-05-15T07:10:09.786Z,99584.38
2023-05-15T07:12:36.554Z,99583.06
2023-05-15T07:15:03.695Z,99579.81
2023-05-15T07:17:33.615Z,99580.41
2023-05-15T07:20:00.325Z,99585.03
2023-05-15T07:22:28.060Z,99585.84
2023-05-15T07:24:54.947Z,99590.28
2023-05-15T07:27:21.538Z,99601.13
2023-05-15T07:29:48.144Z,99608.34
2023-05-15T07:32:14.825Z,99609.25
2023-05-15T07:34:42.754Z,99610.94
2023-05-15T07:37:09.943Z,99611.69
2023-05-15T07:39:36.765Z,99608.13
2023-05-15T07:42:03.479Z,99602.84
2023-05-15T07:44:30.257Z,99611.25
2023-05-15T07:46:57.011Z,99602.47
2023-05-15T07:49:23.613Z,99601.88
2023-05-15T07:51:50.392Z,99602.69
2023-05-15T07:54:17.011Z,99600.94
2023-05-15T07:56:43.998Z,99599.59
2023-05-15T07:59:10.793Z,99602.41
2023-05-15T08:01:37.437Z,99589.34
2023-05-15T08:04:08.473Z,99601.84
2023-05-15T08:06:38.190Z,99600.25
2023-05-15T08:09:04.863Z,99593.97
2023-05-15T08:11:33.782Z,99602.13
2023-05-15T08:14:00.696Z,99589.34
2023-05-15T08:16:30.086Z,99599.28
2023-05-15T08:19:01.605Z,99610.38
2023-05-15T08:21:28.401Z,99611.69
2023-05-15T08:23:55.048Z,99625.53
2023-05-15T08:26:21.832Z,99622.63
2023-05-15T08:28:48.553Z,99630.38
2023-05-15T08:31:15.231Z,99617.84
2023-05-15T08:33:41.942Z,99625.13
2023-05-15T08:36:08.928Z,99623.03
2023-05-15T08:38:35.644Z,99622.59
2023-05-15T08:41:36.320Z,99618.09
2023-05-15T08:44:09.405Z,99617.19
2023-05-15T08:46:36.569Z,99610.91
2023-05-15T08:49:13.101Z,99612.28
2023-05-15T08:51:39.919Z,99607.25
2023-05-15T08:54:10.267Z,99607.16
2023-05-15T08:56:39.493Z,99611.31
2023-05-15T08:59:06.432Z,99615.91
2023-05-15T09:01:34.232Z,99629.41
2023-05-15T09:04:01.283Z,99615.31
2023-05-15T09:06:28.539Z,99620.00
2023-05-15T09:08:57.680Z,99625.47
2023-05-15T09:11:25.960Z,99624.59
2023-05-15T09:13:53.613Z,99627.59
2023-05-15T09:16:21.602Z,99625.34
2023-05-15T09:18:50.010Z,99632.44
2023-05-15T09:21:26.780Z,99635.25
2023-05-15T09:24:17.199Z,99641.66
2023-05-15T09:26:46.903Z,99652.81
2023-05-15T09:29:18.085Z,99655.13
2023-05-15T09:31:48.775Z,99666.06
2023-05-15T09:34:18.393Z,99661.91
2023-05-15T09:36:45.123Z,99660.06
2023-05-15T09:39:12.312Z,99656.56
2023-05-15T09:41:43.201Z,99660.06
2023-05-15T09:44:24.869Z,99665.03
2023-05-15T09:46:52.056Z,99663.38
2023-05-15T09:49:19.900Z,99661.59
2023-05-15T09:51:48.754Z,99668.25
2023-05-15T09:54:17.349Z,99667.25
2023-05-15T09:56:47.742Z,99678.53
2023-05-15T09:59:16.410Z,99675.28
2023-05-15T10:01:47.670Z,99676.66
2023-05-15T10:04:14.872Z,99670.94
2023-05-15T10:06:48.477Z,99664.09
2023-05-15T10:09:15.874Z,99683.78
2023-05-15T10:11:44.136Z,99681.88
2023-05-15T10:14:13.684Z,99682.28
2023-05-15T10:16:41.209Z,99685.34
2023-05-15T10:19:10.700Z,99674.19
2023-05-15T10:21:41.693Z,99672.53
2023-05-15T10:24:08.812Z,99664.19
2023-05-15T10:26:40.340Z,99671.94
2023-05-15T10:29:18.868Z,99666.09
2023-05-15T10:31:48.851Z,99659.38
2023-05-15T10:34:16.435Z,99662.03
2023-05-15T10:36:43.611Z,99658.03
2023-05-15T10:39:10.579Z,99662.84
2023-05-15T10:41:39.804Z,99660.41
2023-05-15T10:44:07.239Z,99669.81
2023-05-15T10:46:36.199Z,99667.97
2023-05-15T10:49:03.279Z,99669.63
2023-05-15T10:51:32.914Z,99676.06
2023-05-15T10:54:03.691Z,99672.09
2023-05-15T10:56:32.217Z,99667.19
2023-05-15T10:59:06.403Z,99671.41
2023-05-15T11:01:35.459Z,99669.78
2023-05-15T11:04:07.439Z,99674.09
2023-05-15T11:06:35.001Z,99671.13
2023-05-15T11:09:27.638Z,99672.16
2023-05-15T11:11:57.403Z,99676.66
2023-05-15T11:14:25.612Z,99676.28
2023-05-15T11:16:55.062Z,99680.91
2023-05-15T11:19:32.425Z,99679.59
2023-05-15T11:22:00.741Z,99680.09
2023-05-15T11:24:32.104Z,99687.78
2023-05-15T11:27:03.750Z,99688.69
2023-05-15T11:29:31.610Z,99682.28
2023-05-15T11:31:58.626Z,99684.44
2023-05-15T11:34:35.035Z,99676.03
2023-05-15T11:37:04.555Z,99679.28
2023-05-15T11:39:31.335Z,99678.56
2023-05-15T11:42:11.351Z,99683.78
2023-05-15T11:44:38.215Z,99683.78
2023-05-15T11:47:05.161Z,99680.53
2023-05-15T11:49:31.879Z,99672.78
2023-05-15T11:52:00.687Z,99669.56
2023-05-15T11:54:28.026Z,99661.53
2023-05-15T11:56:57.527Z,99663.38
2023-05-15T11:59:27.046Z,99658.16
2023-05-15T12:01:53.676Z,99656.22
2023-05-15T12:04:20.823Z,99652.13
2023-05-15T12:06:49.607Z,99649.72
2023-05-15T12:09:21.778Z,99646.41
2023-05-15T12:11:53.030Z,99656.50
2023-05-15T12:14:35.693Z,99653.50
2023-05-15T12:17:04.304Z,99651.41
2023-05-15T12:19:31.547Z,99641.56
2023-05-15T12:21:58.202Z,99643.66
2023-05-15T12:24:28.960Z,99638.53
2023-05-15T12:26:57.469Z,99637.22
2023-05-15T12:29:25.787Z,99632.69
2023-05-15T12:31:53.988Z,99624.41
2023-05-15T12:34:21.855Z,99623.94
2023-05-15T12:36:48.501Z,99608.81
2023-05-15T12:39:15.161Z,99613.34
2023-05-15T12:41:41.902Z,99609.38
2023-05-15T12:44:18.509Z,99606.22
2023-05-15T12:46:46.437Z,99600.59
2023-05-15T12:49:13.310Z,99602.88
2023-05-15T12:51:43.938Z,99588.28
2023-05-15T12:54:20.678Z,99595.41
2023-05-15T12:56:48.615Z,99592.91
2023-05-15T12:59:15.387Z,99597.91
2023-05-15T13:01:45.137Z,99597.63
2023-05-15T13:04:11.931Z,99590.31
2023-05-15T13:06:46.263Z,99591.19
2023-05-15T13:09:13.929Z,99588.47
2023-05-15T13:11:45.095Z,99578.00
2023-05-15T13:14:17.376Z,99573.28
2023-05-15T13:16:47.051Z,99572.47
2023-05-15T13:19:14.265Z,99561.81
2023-05-15T13:21:41.198Z,99558.38
2023-05-15T13:24:11.094Z,99564.56
2023-05-15T13:26:37.752Z,99560.16
2023-05-15T13:29:04.788Z,99563.69
2023-05-15T13:31:32.214Z,99562.09
2023-05-15T13:33:58.893Z,99561.19
2023-05-15T13:36:25.589Z,99571.28
2023-05-15T13:38:52.312Z,99579.94
2023-05-15T13:41:19.120Z,99579.75
2023-05-15T13:43:47.874Z,99585.16
2023-05-15T13:46:14.576Z,99590.34
2023-05-15T13:48:41.247Z,99583.44
2023-05-15T13:51:07.974Z,99583.72
2023-05-15T13:53:34.559Z,99583.94
2023-05-15T13:56:03.637Z,99587.56
2023-05-15T13:58:30.573Z,99577.13
2023-05-15T14:00:57.314Z,99583.13
2023-05-15T14:06:14.204Z,99586.56
2023-05-15T14:08:40.813Z,99584.72
2023-05-15T14:11:07.486Z,99591.91
2023-05-15T14:13:34.361Z,99591.09
2023-05-15T14:16:01.049Z,99595.56
2023-05-15T14:18:28.632Z,99608.38
2023-05-15T14:20:57.339Z,99607.41
2023-05-15T14:23:24.078Z,99610.03
2023-05-15T14:25:50.756Z,99609.97
2023-05-15T14:28:17.393Z,99617.22
2023-05-15T14:30:44.021Z,99613.19
2023-05-15T14:33:10.788Z,99614.69
2023-05-15T14:35:38.524Z,99613.88
2023-05-15T14:38:05.353Z,99620.13
2023-05-15T14:40:31.988Z,99619.81
2023-05-15T14:42:58.604Z,99629.31
2023-05-15T14:45:25.579Z,99627.84
2023-05-15T14:47:52.466Z,99632.69
2023-05-15T14:50:19.213Z,99634.69
2023-05-15T14:52:46.486Z,99633.47
2023-05-15T14:55:13.198Z,99635.03
2023-05-15T14:57:39.863Z,99629.16
2023-05-15T15:00:07.262Z,99635.41
2023-05-15T15:02:34.208Z,99640.88
2023-05-15T15:05:01.136Z,99644.56
2023-05-15T15:07:30.686Z,99643.91
2023-05-15T15:09:58.339Z,99646.66
2023-05-15T15:12:25.050Z,99644.84
2023-05-15T15:14:51.678Z,99648.66
2023-05-15T15:17:18.549Z,99660.22
2023-05-15T15:19:45.205Z,99665.31
2023-05-15T15:22:14.972Z,99653.72
2023-05-15T15:24:41.456Z,99664.00
2023-05-15T15:27:11.272Z,99658.47
2023-05-15T15:29:37.836Z,99665.47
2023-05-15T15:32:04.671Z,99672.63
2023-05-15T15:34:31.438Z,99679.44
2023-05-15T15:37:00.366Z,99673.25
2023-05-15T15:39:26.959Z,99677.19
2023-05-15T15:41:54.498Z,99676.28
2023-05-15T15:44:21.175Z,99680.09
2023-05-15T15:46:47.887Z,99675.09
2023-05-15T15:49:16.646Z,99680.47
2023-05-15T15:51:45.529Z,99676.41
2023-05-15T15:54:12.156Z,99674.66
2023-05-15T15:56:38.811Z,99678.97
2023-05-15T15:59:05.635Z,99686.38
2023-05-15T16:01:32.953Z,99683.00
2023-05-15T16:03:59.691Z,99686.69
2023-05-15T16:06:26.308Z,99685.03
2023-05-15T16:08:53.037Z,99688.22
2023-05-15T16:11:21.604Z,99696.34
2023-05-15T16:13:48.275Z,99698.09
2023-05-15T16:16:14.948Z,99696.00
2023-05-15T16:18:42.056Z,99697.72
2023-05-15T16:21:09.966Z,99695.81
2023-05-15T16:23:38.033Z,99691.19
2023-05-15T16:26:05.355Z,99688.34
2023-05-15T16:28:32.221Z,99680.91
2023-05-15T16:30:59.139Z,99683.41
2023-05-15T16:33:25.989Z,99689.38
2023-05-15T16:35:52.821Z,99691.78
2023-05-15T16:38:19.945Z,99698.88
2023-05-15T16:40:46.818Z,99700.66
2023-05-15T16:43:14.056Z,99687.16
2023-05-15T16:45:40.762Z,99693.78
2023-05-15T16:48:07.870Z,99683.66
2023-05-15T16:50:37.992Z,99678.44
2023-05-15T16:53:05.156Z,99677.88
2023-05-15T16:55:33.160Z,99688.19
2023-05-15T16:57:59.905Z,99681.66
2023-05-15T17:00:27.017Z,99680.63
2023-05-15T17:02:54.609Z,99675.06
2023-05-15T17:05:21.464Z,99684.72
2023-05-15T17:07:48.075Z,99685.69
2023-05-15T17:10:14.637Z,99684.69
2023-05-15T17:12:41.495Z,99686.50
2023-05-15T17:15:08.436Z,99689.88
2023-05-15T17:17:35.104Z,99689.09
2023-05-15T17:20:03.257Z,99675.13
2023-05-15T17:22:30.127Z,99670.63
2023-05-15T17:24:56.809Z,99659.56
2023-05-15T17:27:24.556Z,99651.59
2023-05-15T17:29:51.903Z,99654.63
2023-05-15T17:32:19.162Z,99659.59
2023-05-15T17:34:46.851Z,99674.75
2023-05-15T17:37:13.969Z,99677.22
2023-05-15T17:39:40.733Z,99681.31
2023-05-15T17:42:07.464Z,99675.19
2023-05-15T17:44:34.141Z,99665.56
2023-05-15T17:47:00.989Z,99665.34
2023-05-15T17:49:28.052Z,99659.59
2023-05-15T17:51:54.722Z,99675.19
2023-05-15T17:54:21.422Z,99670.63
2023-05-15T17:56:49.272Z,99673.75
2023-05-15T17:59:16.121Z,99671.50
2023-05-15T18:01:42.876Z,99668.59
2023-05-15T18:04:09.738Z,99672.31
2023-05-15T18:06:36.734Z,99676.63
2023-05-15T18:09:05.198Z,99670.28
2023-05-15T18:11:31.930Z,99671.50
2023-05-15T18:13:58.541Z,99674.53
2023-05-15T18:16:25.145Z,99680.91
2023-05-15T18:18:54.860Z,99685.84
2023-05-15T18:21:21.580Z,99680.31
2023-05-15T18:23:48.438Z,99679.31
2023-05-15T18:26:15.067Z,99689.97
2023-05-15T18:28:41.675Z,99695.69
2023-05-15T18:31:08.500Z,99704.28
2023-05-15T18:33:35.163Z,99697.13
2023-05-15T18:36:01.784Z,99690.34
2023-05-15T18:38:29.039Z,99692.03
2023-05-15T18:40:55.621Z,99695.28
2023-05-15T18:43:22.340Z,99696.94
2023-05-15T18:45:49.022Z,99704.31
2023-05-15T18:48:15.734Z,99712.09
2023-05-15T18:50:42.713Z,99720.28
2023-05-15T18:53:09.460Z,99719.25
2023-05-15T18:55:36.129Z,99714.34
2023-05-15T18:58:02.803Z,99721.16
2023-05-15T19:00:38.130Z,99729.34
2023-05-15T19:03:06.543Z,99735.31
2023-05-15T19:05:34.258Z,99736.94
2023-05-15T19:08:01.427Z,99743.91
2023-05-15T19:10:29.635Z,99743.69
2023-05-15T19:12:57.181Z,99746.53
2023-05-15T19:15:25.136Z,99736.53
2023-05-15T19:17:52.045Z,99739.16
2023-05-15T19:20:19.064Z,99748.59
2023-05-15T19:22:46.291Z,99752.91
2023-05-15T19:25:13.104Z,99753.53
2023-05-15T19:27:39.847Z,99745.56
2023-05-15T19:30:07.201Z,99745.13
2023-05-15T19:32:34.300Z,99755.81
2023-05-15T19:35:01.930Z,99758.47
2023-05-15T19:37:30.163Z,99753.34
2023-05-15T19:39:57.209Z,99763.81
2023-05-15T19:42:23.995Z,99762.16
2023-05-15T19:44:50.675Z,99757.81
2023-05-15T19:47:21.347Z,99752.06
2023-05-15T19:49:48.167Z,99749.84
2023-05-15T19:52:16.302Z,99758.47
2023-05-15T19:54:42.913Z,99754.94
2023-05-15T19:57:09.558Z,99758.88
2023-05-15T19:59:36.158Z,99763.16
2023-05-15T20:02:03.035Z,99766.66
2023-05-15T20:04:29.904Z,99762.94
2023-05-15T20:06:56.564Z,99764.63
2023-05-15T20:09:23.159Z,99761.53
2023-05-15T20:11:49.761Z,99763.59
2023-05-15T20:14:16.652Z,99769.13
2023-05-15T20:16:43.585Z,99772.63
2023-05-15T20:19:11.212Z,99772.81
2023-05-15T20:21:38.942Z,99764.63
2023-05-15T20:24:06.114Z,99763.19
2023-05-15T20:26:32.911Z,99751.69
2023-05-15T20:28:59.604Z,99761.34
2023-05-15T20:31:26.316Z,99768.06
2023-05-15T20:33:53.057Z,99764.19
2023-05-15T20:36:20.223Z,99754.94
2023-05-15T20:38:46.894Z,99759.69
2023-05-15T20:41:13.525Z,99751.06
2023-05-15T20:43:40.136Z,99753.31
2023-05-15T20:46:09.238Z,99745.94
2023-05-15T20:48:36.476Z,99742.44
2023-05-15T20:51:03.304Z,99743.88
2023-05-15T20:53:29.993Z,99748.59
2023-05-15T20:55:56.692Z,99741.66
2023-05-15T20:58:23.320Z,99745.34
2023-05-15T21:00:50.017Z,99739.38
2023-05-15T21:03:16.740Z,99735.06
2023-05-15T21:05:43.391Z,99740.19
2023-05-15T21:08:09.986Z,99741.84
2023-05-15T21:10:36.612Z,99746.34
2023-05-15T21:13:03.587Z,99749.63
2023-05-15T21:15:30.355Z,99745.94
2023-05-15T21:17:59.143Z,99741.22
2023-05-15T21:20:28.732Z,99736.31
2023-05-15T21:22:55.534Z,99737.97
2023-05-15T21:25:22.236Z,99735.50
2023-05-15T21:27:51.945Z,99742.88
2023-05-15T21:30:18.957Z,99747.81
2023-05-15T21:32:45.745Z,99740.03
2023-05-15T21:35:12.365Z,99742.66
2023-05-15T21:37:39.066Z,99740.63
2023-05-15T21:40:06.757Z,99746.97
2023-05-15T21:42:33.373Z,99745.72
2023-05-15T21:45:00.046Z,99745.13
2023-05-15T21:47:26.702Z,99742.66
2023-05-15T21:49:53.330Z,99740.41
2023-05-15T21:52:19.987Z,99743.69
2023-05-15T21:54:46.619Z,99749.22
2023-05-15T21:57:13.286Z,99745.13
2023-05-15T21:59:40.173Z,99739.19
2023-05-15T22:02:07.503Z,99732.19
2023-05-15T22:04:34.380Z,99728.72
2023-05-15T22:07:01.024Z,99737.53
2023-05-15T22:09:27.660Z,99723.81
2023-05-15T22:11:54.255Z,99723.81
2023-05-15T22:14:21.982Z,99728.53
2023-05-15T22:16:48.688Z,99730.16
2023-05-15T22:19:31.689Z,99733.44
2023-05-15T22:22:00.911Z,99737.50
2023-05-15T22:24:27.602Z,99746.31
2023-05-15T22:26:54.997Z,99727.69
2023-05-15T22:29:21.936Z,99718.66
2023-05-15T22:31:50.678Z,99718.66
2023-05-15T22:34:17.463Z,99724.41
2023-05-15T22:36:44.077Z,99731.38
2023-05-15T22:39:11.668Z,99723.41
2023-05-15T22:41:38.318Z,99722.97
2023-05-15T22:44:05.160Z,99719.69
2023-05-15T22:46:31.831Z,99712.09
2023-05-15T22:49:00.504Z,99708.41
2023-05-15T22:51:27.270Z,99720.72
2023-05-15T22:53:53.858Z,99733.03
2023-05-15T22:56:21.462Z,99733.44
2023-05-15T22:58:48.243Z,99734.25
2023-05-15T23:01:14.884Z,99731.41
2023-05-15T23:03:41.665Z,99729.53
2023-05-15T23:06:08.289Z,99724.00
2023-05-15T23:08:34.958Z,99734.25
2023-05-15T23:11:03.998Z,99740.19
2023-05-15T23:13:30.676Z,99737.13
2023-05-15T23:15:57.301Z,99736.94
2023-05-15T23:18:24.024Z,99736.09
2023-05-15T23:20:50.727Z,99731.78
2023-05-15T23:23:17.419Z,99730.38
2023-05-15T23:25:44.043Z,99725.03
2023-05-15T23:28:11.009Z,99721.13
2023-05-15T23:30:37.657Z,99713.53
2023-05-15T23:33:04.346Z,99725.84
2023-05-15T23:35:31.471Z,99722.38
2023-05-15T23:37:58.147Z,99720.72
2023-05-15T23:40:25.124Z,99718.88
2023-05-15T23:42:51.988Z,99718.66
2023-05-15T23:45:18.825Z,99715.19
2023-05-15T23:47:46.731Z,99718.66
2023-05-15T23:50:16.269Z,99723.38
2023-05-15T23:52:42.853Z,99732.41
2023-05-15T23:55:09.914Z,99726.03
2023-05-15T23:57:36.490Z,99716.22
